Airport View

Enter AWOS ICAO identifier for current METAR.

ex. KFNL

K2I0 170935Z AUTO 10003KT 4SM BR CLR M03/M06 A3013 RMK AO2 T10331057

17 Nov 2019 09:41

Frequency: 126.475

Phone: 270-821-4554

Other Area AWOS: KM21 - KOWB - KEHR - K5M9

TAF KOWB 170521Z 1706/1806 VRB03KT P6SM FEW250 FM170800 VRB03KT 5SM BR FEW250 FM171300 00000KT P6SM FEW250 FM171700 VRB03KT P6SM BKN250 FM180300 00000KT P6SM BKN180